sensor_id;sensor_type;location;lat;lon;timestamp;P1;durP1;ratioP1;P2;durP2;ratioP2
19946;SDS011;10135;50.702;7.276;2024-01-27T06:31:20;4.57;;;2.07;;
19946;SDS011;10135;50.702;7.276;2024-01-27T06:33:21;8.30;;;2.00;;
19946;SDS011;10135;50.702;7.276;2024-01-27T06:35:22;6.00;;;2.00;;
19946;SDS011;10135;50.702;7.276;2024-01-27T06:37:22;3.80;;;1.97;;
19946;SDS011;10135;50.702;7.276;2024-01-27T06:39:23;7.20;;;2.20;;
19946;SDS011;10135;50.702;7.276;2024-01-27T06:41:24;6.50;;;2.20;;
19946;SDS011;10135;50.702;7.276;2024-01-27T06:43:24;2.90;;;1.83;;
19946;SDS011;10135;50.702;7.276;2024-01-27T06:45:25;6.13;;;2.47;;
19946;SDS011;10135;50.702;7.276;2024-01-27T06:47:25;7.03;;;2.10;;
19946;SDS011;10135;50.702;7.276;2024-01-27T06:49:26;8.03;;;2.10;;
19946;SDS011;10135;50.702;7.276;2024-01-27T06:51:27;8.23;;;2.30;;
19946;SDS011;10135;50.702;7.276;2024-01-27T06:53:28;7.60;;;2.40;;
19946;SDS011;10135;50.702;7.276;2024-01-27T06:55:28;5.50;;;2.03;;
19946;SDS011;10135;50.702;7.276;2024-01-27T06:57:29;9.83;;;2.43;;
19946;SDS011;10135;50.702;7.276;2024-01-27T06:59:29;5.83;;;2.37;;
19946;SDS011;10135;50.702;7.276;2024-01-27T07:01:30;8.43;;;2.23;;
19946;SDS011;10135;50.702;7.276;2024-01-27T07:03:31;7.77;;;2.23;;
19946;SDS011;10135;50.702;7.276;2024-01-27T07:05:31;5.57;;;2.17;;
19946;SDS011;10135;50.702;7.276;2024-01-27T07:07:38;5.57;;;2.10;;
19946;SDS011;10135;50.702;7.276;2024-01-27T07:09:39;9.37;;;2.63;;
19946;SDS011;10135;50.702;7.276;2024-01-27T07:11:39;5.83;;;2.03;;
19946;SDS011;10135;50.702;7.276;2024-01-27T07:13:41;6.13;;;2.30;;
19946;SDS011;10135;50.702;7.276;2024-01-27T07:15:42;6.97;;;2.10;;
19946;SDS011;10135;50.702;7.276;2024-01-27T07:17:42;5.43;;;1.97;;
19946;SDS011;10135;50.702;7.276;2024-01-27T07:19:43;5.30;;;2.40;;
19946;SDS011;10135;50.702;7.276;2024-01-27T07:21:44;6.67;;;2.20;;
19946;SDS011;10135;50.702;7.276;2024-01-27T07:23:44;7.03;;;2.20;;
19946;SDS011;10135;50.702;7.276;2024-01-27T07:25:45;8.10;;;2.33;;
19946;SDS011;10135;50.702;7.276;2024-01-27T07:27:46;7.87;;;2.27;;
19946;SDS011;10135;50.702;7.276;2024-01-27T07:29:47;5.23;;;1.90;;
19946;SDS011;10135;50.702;7.276;2024-01-27T07:31:47;9.73;;;3.27;;
19946;SDS011;10135;50.702;7.276;2024-01-27T07:33:49;5.83;;;2.10;;
19946;SDS011;10135;50.702;7.276;2024-01-27T07:35:50;5.53;;;2.37;;
19946;SDS011;10135;50.702;7.276;2024-01-27T07:37:51;7.60;;;2.00;;
19946;SDS011;10135;50.702;7.276;2024-01-27T07:39:52;7.37;;;2.73;;
19946;SDS011;10135;50.702;7.276;2024-01-27T07:41:52;6.67;;;2.10;;
19946;SDS011;10135;50.702;7.276;2024-01-27T07:43:54;9.57;;;2.27;;
19946;SDS011;10135;50.702;7.276;2024-01-27T07:45:55;13.47;;;2.27;;
19946;SDS011;10135;50.702;7.276;2024-01-27T07:47:55;9.37;;;2.43;;
19946;SDS011;10135;50.702;7.276;2024-01-27T07:49:56;6.57;;;2.30;;
19946;SDS011;10135;50.702;7.276;2024-01-27T07:51:56;5.13;;;2.20;;
19946;SDS011;10135;50.702;7.276;2024-01-27T07:53:58;6.13;;;2.43;;
19946;SDS011;10135;50.702;7.276;2024-01-27T07:55:59;5.97;;;2.20;;
19946;SDS011;10135;50.702;7.276;2024-01-27T07:58:00;7.53;;;2.53;;
19946;SDS011;10135;50.702;7.276;2024-01-27T08:00:00;5.53;;;2.27;;
19946;SDS011;10135;50.702;7.276;2024-01-27T08:02:01;10.00;;;2.77;;
19946;SDS011;10135;50.702;7.276;2024-01-27T08:04:02;6.57;;;2.70;;
19946;SDS011;10135;50.702;7.276;2024-01-27T08:06:06;10.07;;;2.40;;
19946;SDS011;10135;50.702;7.276;2024-01-27T08:08:10;5.07;;;2.10;;
19946;SDS011;10135;50.702;7.276;2024-01-27T08:10:10;6.83;;;2.50;;
19946;SDS011;10135;50.702;7.276;2024-01-27T08:12:11;4.63;;;2.37;;
19946;SDS011;10135;50.702;7.276;2024-01-27T08:14:12;8.83;;;2.50;;
19946;SDS011;10135;50.702;7.276;2024-01-27T08:16:12;9.47;;;2.57;;
19946;SDS011;10135;50.702;7.276;2024-01-27T08:18:14;8.43;;;2.63;;
19946;SDS011;10135;50.702;7.276;2024-01-27T08:20:14;8.60;;;2.30;;
19946;SDS011;10135;50.702;7.276;2024-01-27T08:22:15;4.80;;;2.57;;
19946;SDS011;10135;50.702;7.276;2024-01-27T08:24:16;4.83;;;2.50;;
19946;SDS011;10135;50.702;7.276;2024-01-27T08:26:16;7.63;;;2.87;;
19946;SDS011;10135;50.702;7.276;2024-01-27T08:28:18;7.53;;;3.90;;
19946;SDS011;10135;50.702;7.276;2024-01-27T08:30:19;8.87;;;4.20;;
19946;SDS011;10135;50.702;7.276;2024-01-27T08:32:19;8.73;;;3.53;;
19946;SDS011;10135;50.702;7.276;2024-01-27T08:34:20;11.00;;;3.97;;
19946;SDS011;10135;50.702;7.276;2024-01-27T08:36:21;8.67;;;3.50;;
19946;SDS011;10135;50.702;7.276;2024-01-27T08:38:21;8.93;;;3.70;;
19946;SDS011;10135;50.702;7.276;2024-01-27T08:40:22;8.10;;;3.30;;
19946;SDS011;10135;50.702;7.276;2024-01-27T08:42:23;8.03;;;3.03;;
19946;SDS011;10135;50.702;7.276;2024-01-27T08:44:24;7.07;;;2.80;;
19946;SDS011;10135;50.702;7.276;2024-01-27T08:46:25;6.03;;;2.60;;
19946;SDS011;10135;50.702;7.276;2024-01-27T08:48:25;4.50;;;2.97;;
19946;SDS011;10135;50.702;7.276;2024-01-27T08:50:26;8.90;;;2.83;;
19946;SDS011;10135;50.702;7.276;2024-01-27T08:52:27;4.40;;;2.30;;
19946;SDS011;10135;50.702;7.276;2024-01-27T08:54:27;7.37;;;2.50;;
19946;SDS011;10135;50.702;7.276;2024-01-27T08:56:28;7.33;;;2.43;;
19946;SDS011;10135;50.702;7.276;2024-01-27T08:58:29;5.70;;;2.30;;
19946;SDS011;10135;50.702;7.276;2024-01-27T09:00:29;5.17;;;2.30;;
19946;SDS011;10135;50.702;7.276;2024-01-27T09:02:30;7.45;;;2.55;;
19946;SDS011;10135;50.702;7.276;2024-01-27T09:04:30;7.27;;;2.67;;
19946;SDS011;10135;50.702;7.276;2024-01-27T09:06:31;5.40;;;2.13;;
19946;SDS011;10135;50.702;7.276;2024-01-27T09:08:32;7.13;;;2.23;;
19946;SDS011;10135;50.702;7.276;2024-01-27T09:10:32;7.90;;;2.17;;
19946;SDS011;10135;50.702;7.276;2024-01-27T09:12:33;5.27;;;2.07;;
19946;SDS011;10135;50.702;7.276;2024-01-27T09:14:34;4.30;;;2.07;;
19946;SDS011;10135;50.702;7.276;2024-01-27T09:16:35;9.20;;;2.10;;
19946;SDS011;10135;50.702;7.276;2024-01-27T09:18:35;4.60;;;1.90;;
19946;SDS011;10135;50.702;7.276;2024-01-27T09:20:36;6.20;;;2.20;;
19946;SDS011;10135;50.702;7.276;2024-01-27T09:22:36;3.83;;;1.90;;
19946;SDS011;10135;50.702;7.276;2024-01-27T09:24:37;3.13;;;2.00;;
19946;SDS011;10135;50.702;7.276;2024-01-27T09:26:38;6.30;;;2.07;;
19946;SDS011;10135;50.702;7.276;2024-01-27T09:28:39;3.93;;;1.90;;
19946;SDS011;10135;50.702;7.276;2024-01-27T09:30:43;7.07;;;2.10;;
19946;SDS011;10135;50.702;7.276;2024-01-27T09:32:44;5.63;;;2.30;;
19946;SDS011;10135;50.702;7.276;2024-01-27T09:34:45;6.47;;;2.40;;
19946;SDS011;10135;50.702;7.276;2024-01-27T09:36:45;5.13;;;2.20;;
19946;SDS011;10135;50.702;7.276;2024-01-27T09:38:46;5.77;;;2.20;;
19946;SDS011;10135;50.702;7.276;2024-01-27T09:40:47;4.30;;;1.93;;
19946;SDS011;10135;50.702;7.276;2024-01-27T09:42:52;5.87;;;2.20;;
19946;SDS011;10135;50.702;7.276;2024-01-27T09:44:53;4.37;;;2.17;;
19946;SDS011;10135;50.702;7.276;2024-01-27T09:46:56;9.83;;;2.00;;
19946;SDS011;10135;50.702;7.276;2024-01-27T09:48:57;6.30;;;2.30;;
19946;SDS011;10135;50.702;7.276;2024-01-27T09:50:58;4.97;;;2.20;;
19946;SDS011;10135;50.702;7.276;2024-01-27T09:53:01;6.27;;;2.23;;
19946;SDS011;10135;50.702;7.276;2024-01-27T09:55:02;5.20;;;2.17;;
19946;SDS011;10135;50.702;7.276;2024-01-27T09:57:03;5.83;;;2.10;;
19946;SDS011;10135;50.702;7.276;2024-01-27T09:59:05;5.70;;;2.00;;
19946;SDS011;10135;50.702;7.276;2024-01-27T10:01:06;4.63;;;2.20;;
19946;SDS011;10135;50.702;7.276;2024-01-27T10:03:08;5.47;;;2.00;;
19946;SDS011;10135;50.702;7.276;2024-01-27T10:05:09;5.40;;;2.00;;
19946;SDS011;10135;50.702;7.276;2024-01-27T10:07:11;10.60;;;1.90;;
19946;SDS011;10135;50.702;7.276;2024-01-27T10:09:12;3.07;;;1.50;;
19946;SDS011;10135;50.702;7.276;2024-01-27T10:11:13;7.43;;;2.37;;
19946;SDS011;10135;50.702;7.276;2024-01-27T10:13:16;3.90;;;1.97;;
19946;SDS011;10135;50.702;7.276;2024-01-27T10:15:18;5.63;;;1.67;;
19946;SDS011;10135;50.702;7.276;2024-01-27T10:17:21;5.23;;;2.10;;
19946;SDS011;10135;50.702;7.276;2024-01-27T10:19:22;6.97;;;2.07;;
19946;SDS011;10135;50.702;7.276;2024-01-27T10:21:23;3.33;;;1.97;;
19946;SDS011;10135;50.702;7.276;2024-01-27T10:23:26;9.73;;;2.33;;
19946;SDS011;10135;50.702;7.276;2024-01-27T10:25:27;4.57;;;2.20;;
19946;SDS011;10135;50.702;7.276;2024-01-27T10:27:27;3.80;;;1.90;;
19946;SDS011;10135;50.702;7.276;2024-01-27T10:29:29;7.30;;;2.23;;
19946;SDS011;10135;50.702;7.276;2024-01-27T10:31:33;5.03;;;1.80;;
19946;SDS011;10135;50.702;7.276;2024-01-27T10:33:36;3.97;;;1.70;;
19946;SDS011;10135;50.702;7.276;2024-01-27T10:35:36;4.93;;;1.97;;
19946;SDS011;10135;50.702;7.276;2024-01-27T10:37:37;6.63;;;2.30;;
19946;SDS011;10135;50.702;7.276;2024-01-27T10:39:38;5.50;;;2.30;;
19946;SDS011;10135;50.702;7.276;2024-01-27T10:41:38;3.47;;;2.00;;
19946;SDS011;10135;50.702;7.276;2024-01-27T10:43:42;5.17;;;2.30;;
19946;SDS011;10135;50.702;7.276;2024-01-27T10:45:44;5.20;;;2.30;;
19946;SDS011;10135;50.702;7.276;2024-01-27T10:47:45;5.13;;;2.70;;
19946;SDS011;10135;50.702;7.276;2024-01-27T10:49:49;8.87;;;2.20;;
19946;SDS011;10135;50.702;7.276;2024-01-27T10:51:55;4.77;;;2.10;;
19946;SDS011;10135;50.702;7.276;2024-01-27T10:54:01;8.27;;;2.50;;
19946;SDS011;10135;50.702;7.276;2024-01-27T10:56:03;5.40;;;2.23;;
19946;SDS011;10135;50.702;7.276;2024-01-27T10:58:09;5.27;;;2.00;;
19946;SDS011;10135;50.702;7.276;2024-01-27T11:00:12;6.50;;;2.50;;
19946;SDS011;10135;50.702;7.276;2024-01-27T11:02:15;2.77;;;1.90;;
19946;SDS011;10135;50.702;7.276;2024-01-27T11:04:17;8.20;;;2.23;;
19946;SDS011;10135;50.702;7.276;2024-01-27T11:06:21;7.13;;;2.20;;
19946;SDS011;10135;50.702;7.276;2024-01-27T11:08:23;6.33;;;2.20;;
19946;SDS011;10135;50.702;7.276;2024-01-27T11:10:29;6.40;;;2.13;;
19946;SDS011;10135;50.702;7.276;2024-01-27T11:12:35;9.63;;;2.43;;
19946;SDS011;10135;50.702;7.276;2024-01-27T11:14:36;2.87;;;2.00;;
19946;SDS011;10135;50.702;7.276;2024-01-27T11:16:37;9.27;;;2.27;;
19946;SDS011;10135;50.702;7.276;2024-01-27T11:18:43;6.90;;;2.30;;
19946;SDS011;10135;50.702;7.276;2024-01-27T11:20:45;4.07;;;2.20;;
19946;SDS011;10135;50.702;7.276;2024-01-27T11:22:46;5.23;;;2.60;;
19946;SDS011;10135;50.702;7.276;2024-01-27T11:24:46;4.10;;;2.43;;
19946;SDS011;10135;50.702;7.276;2024-01-27T11:26:47;4.43;;;2.00;;
19946;SDS011;10135;50.702;7.276;2024-01-27T11:28:50;9.63;;;2.43;;
19946;SDS011;10135;50.702;7.276;2024-01-27T11:30:51;8.67;;;2.40;;
19946;SDS011;10135;50.702;7.276;2024-01-27T11:32:57;7.30;;;3.00;;
19946;SDS011;10135;50.702;7.276;2024-01-27T11:35:01;8.13;;;3.20;;
19946;SDS011;10135;50.702;7.276;2024-01-27T11:37:14;5.63;;;2.80;;
19946;SDS011;10135;50.702;7.276;2024-01-27T11:39:23;6.80;;;2.53;;
19946;SDS011;10135;50.702;7.276;2024-01-27T11:41:26;4.70;;;2.50;;
19946;SDS011;10135;50.702;7.276;2024-01-27T11:43:28;7.30;;;2.40;;
19946;SDS011;10135;50.702;7.276;2024-01-27T11:45:30;5.00;;;2.30;;
19946;SDS011;10135;50.702;7.276;2024-01-27T11:47:30;6.57;;;2.10;;
19946;SDS011;10135;50.702;7.276;2024-01-27T11:49:31;6.23;;;2.40;;
19946;SDS011;10135;50.702;7.276;2024-01-27T11:51:33;7.00;;;1.83;;
19946;SDS011;10135;50.702;7.276;2024-01-27T11:53:34;4.53;;;2.50;;
19946;SDS011;10135;50.702;7.276;2024-01-27T11:55:35;5.73;;;2.53;;
19946;SDS011;10135;50.702;7.276;2024-01-27T11:57:37;5.43;;;2.10;;
19946;SDS011;10135;50.702;7.276;2024-01-27T11:59:38;6.40;;;2.70;;
19946;SDS011;10135;50.702;7.276;2024-01-27T12:01:38;5.50;;;2.50;;
19946;SDS011;10135;50.702;7.276;2024-01-27T12:03:39;6.37;;;2.10;;
19946;SDS011;10135;50.702;7.276;2024-01-27T12:05:40;6.13;;;2.23;;
19946;SDS011;10135;50.702;7.276;2024-01-27T12:07:41;4.67;;;2.33;;
19946;SDS011;10135;50.702;7.276;2024-01-27T12:09:42;6.43;;;2.63;;
19946;SDS011;10135;50.702;7.276;2024-01-27T12:11:42;4.90;;;2.50;;
19946;SDS011;10135;50.702;7.276;2024-01-27T12:13:43;5.47;;;2.37;;
19946;SDS011;10135;50.702;7.276;2024-01-27T12:15:44;5.47;;;2.63;;
19946;SDS011;10135;50.702;7.276;2024-01-27T12:17:49;5.37;;;2.50;;
19946;SDS011;10135;50.702;7.276;2024-01-27T12:19:53;3.03;;;2.10;;
19946;SDS011;10135;50.702;7.276;2024-01-27T12:21:53;5.27;;;2.00;;
19946;SDS011;10135;50.702;7.276;2024-01-27T12:23:55;4.53;;;2.00;;
19946;SDS011;10135;50.702;7.276;2024-01-27T12:25:58;3.07;;;1.70;;
19946;SDS011;10135;50.702;7.276;2024-01-27T12:28:05;3.80;;;2.20;;
19946;SDS011;10135;50.702;7.276;2024-01-27T12:30:08;5.83;;;1.90;;
19946;SDS011;10135;50.702;7.276;2024-01-27T12:32:10;6.63;;;1.90;;
19946;SDS011;10135;50.702;7.276;2024-01-27T12:34:10;6.37;;;1.80;;
19946;SDS011;10135;50.702;7.276;2024-01-27T12:36:11;6.17;;;2.23;;
19946;SDS011;10135;50.702;7.276;2024-01-27T12:38:12;6.07;;;1.83;;
19946;SDS011;10135;50.702;7.276;2024-01-27T12:40:17;5.50;;;1.80;;
19946;SDS011;10135;50.702;7.276;2024-01-27T12:42:19;6.77;;;2.30;;
19946;SDS011;10135;50.702;7.276;2024-01-27T12:44:19;4.97;;;1.90;;
19946;SDS011;10135;50.702;7.276;2024-01-27T12:46:20;5.30;;;1.73;;
19946;SDS011;10135;50.702;7.276;2024-01-27T12:48:21;4.47;;;2.00;;
19946;SDS011;10135;50.702;7.276;2024-01-27T12:50:22;5.37;;;2.10;;
19946;SDS011;10135;50.702;7.276;2024-01-27T12:52:22;4.23;;;2.00;;
19946;SDS011;10135;50.702;7.276;2024-01-27T12:54:24;3.97;;;2.03;;
19946;SDS011;10135;50.702;7.276;2024-01-27T12:56:25;6.13;;;1.90;;
19946;SDS011;10135;50.702;7.276;2024-01-27T12:58:26;2.60;;;1.50;;
19946;SDS011;10135;50.702;7.276;2024-01-27T13:00:27;4.90;;;1.97;;
19946;SDS011;10135;50.702;7.276;2024-01-27T13:02:28;6.83;;;1.70;;
19946;SDS011;10135;50.702;7.276;2024-01-27T13:04:29;4.87;;;2.30;;
19946;SDS011;10135;50.702;7.276;2024-01-27T13:06:29;7.00;;;1.70;;
19946;SDS011;10135;50.702;7.276;2024-01-27T13:08:30;6.10;;;2.27;;
19946;SDS011;10135;50.702;7.276;2024-01-27T13:10:31;2.50;;;1.83;;
19946;SDS011;10135;50.702;7.276;2024-01-27T13:12:32;3.33;;;1.70;;
19946;SDS011;10135;50.702;7.276;2024-01-27T13:14:32;4.27;;;1.73;;
19946;SDS011;10135;50.702;7.276;2024-01-27T13:16:33;7.00;;;2.20;;
19946;SDS011;10135;50.702;7.276;2024-01-27T13:18:34;5.53;;;2.03;;
19946;SDS011;10135;50.702;7.276;2024-01-27T13:20:36;7.10;;;2.03;;
19946;SDS011;10135;50.702;7.276;2024-01-27T13:22:37;4.10;;;1.90;;
19946;SDS011;10135;50.702;7.276;2024-01-27T13:24:38;4.87;;;1.57;;
19946;SDS011;10135;50.702;7.276;2024-01-27T13:26:39;4.30;;;1.67;;
19946;SDS011;10135;50.702;7.276;2024-01-27T13:28:39;4.50;;;1.87;;
19946;SDS011;10135;50.702;7.276;2024-01-27T13:30:40;2.60;;;1.90;;
19946;SDS011;10135;50.702;7.276;2024-01-27T13:32:42;3.03;;;1.97;;
19946;SDS011;10135;50.702;7.276;2024-01-27T13:34:43;6.40;;;1.97;;
19946;SDS011;10135;50.702;7.276;2024-01-27T13:36:43;3.43;;;1.63;;
19946;SDS011;10135;50.702;7.276;2024-01-27T13:38:44;9.10;;;2.27;;
19946;SDS011;10135;50.702;7.276;2024-01-27T13:40:45;6.93;;;2.03;;
19946;SDS011;10135;50.702;7.276;2024-01-27T13:42:46;7.00;;;1.67;;
19946;SDS011;10135;50.702;7.276;2024-01-27T13:44:46;3.10;;;1.60;;
19946;SDS011;10135;50.702;7.276;2024-01-27T13:46:47;8.20;;;2.37;;
19946;SDS011;10135;50.702;7.276;2024-01-27T13:48:48;8.70;;;2.70;;
19946;SDS011;10135;50.702;7.276;2024-01-27T13:50:49;4.73;;;2.20;;
19946;SDS011;10135;50.702;7.276;2024-01-27T13:52:50;3.83;;;1.80;;
19946;SDS011;10135;50.702;7.276;2024-01-27T13:54:50;7.40;;;2.00;;
19946;SDS011;10135;50.702;7.276;2024-01-27T13:56:51;5.10;;;1.90;;
19946;SDS011;10135;50.702;7.276;2024-01-27T13:58:52;6.43;;;2.00;;
19946;SDS011;10135;50.702;7.276;2024-01-27T14:00:53;6.07;;;1.90;;
19946;SDS011;10135;50.702;7.276;2024-01-27T14:02:54;3.47;;;1.93;;
19946;SDS011;10135;50.702;7.276;2024-01-27T14:04:54;4.93;;;1.90;;
19946;SDS011;10135;50.702;7.276;2024-01-27T14:06:55;5.17;;;2.30;;
19946;SDS011;10135;50.702;7.276;2024-01-27T14:08:56;3.63;;;2.13;;
19946;SDS011;10135;50.702;7.276;2024-01-27T14:10:56;5.83;;;2.33;;
19946;SDS011;10135;50.702;7.276;2024-01-27T14:12:57;8.93;;;2.57;;
19946;SDS011;10135;50.702;7.276;2024-01-27T14:15:05;2.70;;;1.80;;
19946;SDS011;10135;50.702;7.276;2024-01-27T14:17:07;4.83;;;2.00;;
19946;SDS011;10135;50.702;7.276;2024-01-27T14:19:08;4.40;;;2.40;;
19946;SDS011;10135;50.702;7.276;2024-01-27T14:21:09;8.40;;;2.10;;
19946;SDS011;10135;50.702;7.276;2024-01-27T14:23:11;3.00;;;1.90;;
19946;SDS011;10135;50.702;7.276;2024-01-27T14:25:12;4.67;;;1.90;;
19946;SDS011;10135;50.702;7.276;2024-01-27T14:27:12;8.77;;;2.90;;
19946;SDS011;10135;50.702;7.276;2024-01-27T14:29:14;7.47;;;2.00;;
19946;SDS011;10135;50.702;7.276;2024-01-27T14:31:16;5.03;;;1.87;;
19946;SDS011;10135;50.702;7.276;2024-01-27T14:33:17;5.23;;;1.93;;
19946;SDS011;10135;50.702;7.276;2024-01-27T14:35:20;6.47;;;1.97;;
19946;SDS011;10135;50.702;7.276;2024-01-27T14:37:21;4.87;;;2.00;;
19946;SDS011;10135;50.702;7.276;2024-01-27T14:39:22;3.67;;;2.00;;
19946;SDS011;10135;50.702;7.276;2024-01-27T14:41:22;5.20;;;1.83;;
19946;SDS011;10135;50.702;7.276;2024-01-27T14:43:23;7.93;;;2.17;;
19946;SDS011;10135;50.702;7.276;2024-01-27T14:45:24;4.00;;;1.93;;
19946;SDS011;10135;50.702;7.276;2024-01-27T14:47:25;3.60;;;1.73;;
19946;SDS011;10135;50.702;7.276;2024-01-27T14:49:26;5.17;;;1.67;;
19946;SDS011;10135;50.702;7.276;2024-01-27T14:51:28;5.73;;;1.93;;
19946;SDS011;10135;50.702;7.276;2024-01-27T14:53:28;3.70;;;1.70;;
19946;SDS011;10135;50.702;7.276;2024-01-27T14:55:30;6.20;;;1.87;;
19946;SDS011;10135;50.702;7.276;2024-01-27T14:57:32;6.47;;;2.40;;
19946;SDS011;10135;50.702;7.276;2024-01-27T14:59:33;6.40;;;2.17;;
19946;SDS011;10135;50.702;7.276;2024-01-27T15:01:35;6.60;;;1.90;;
19946;SDS011;10135;50.702;7.276;2024-01-27T15:03:35;5.37;;;1.63;;
19946;SDS011;10135;50.702;7.276;2024-01-27T15:05:36;7.63;;;2.20;;
19946;SDS011;10135;50.702;7.276;2024-01-27T15:07:40;6.33;;;1.80;;
19946;SDS011;10135;50.702;7.276;2024-01-27T15:09:41;8.47;;;2.10;;
19946;SDS011;10135;50.702;7.276;2024-01-27T15:11:42;6.50;;;1.83;;
19946;SDS011;10135;50.702;7.276;2024-01-27T15:13:42;1.90;;;1.50;;
19946;SDS011;10135;50.702;7.276;2024-01-27T15:15:43;3.57;;;2.00;;
19946;SDS011;10135;50.702;7.276;2024-01-27T15:17:44;4.67;;;2.10;;
19946;SDS011;10135;50.702;7.276;2024-01-27T15:19:45;4.33;;;1.90;;
19946;SDS011;10135;50.702;7.276;2024-01-27T15:21:46;4.70;;;1.70;;
19946;SDS011;10135;50.702;7.276;2024-01-27T15:23:46;5.07;;;1.73;;
19946;SDS011;10135;50.702;7.276;2024-01-27T15:25:47;4.63;;;2.17;;
19946;SDS011;10135;50.702;7.276;2024-01-27T15:27:48;4.07;;;1.80;;
19946;SDS011;10135;50.702;7.276;2024-01-27T15:29:50;2.93;;;1.70;;
19946;SDS011;10135;50.702;7.276;2024-01-27T15:31:52;3.23;;;1.83;;
19946;SDS011;10135;50.702;7.276;2024-01-27T15:33:52;4.73;;;1.93;;
19946;SDS011;10135;50.702;7.276;2024-01-27T15:35:53;4.27;;;1.70;;
19946;SDS011;10135;50.702;7.276;2024-01-27T15:37:54;4.03;;;1.97;;
19946;SDS011;10135;50.702;7.276;2024-01-27T15:39:54;4.37;;;1.70;;
19946;SDS011;10135;50.702;7.276;2024-01-27T15:41:55;5.63;;;1.97;;
19946;SDS011;10135;50.702;7.276;2024-01-27T15:43:57;6.97;;;2.30;;
19946;SDS011;10135;50.702;7.276;2024-01-27T15:45:58;5.73;;;2.17;;
19946;SDS011;10135;50.702;7.276;2024-01-27T15:48:04;3.87;;;1.73;;
19946;SDS011;10135;50.702;7.276;2024-01-27T15:50:05;7.83;;;1.80;;
19946;SDS011;10135;50.702;7.276;2024-01-27T15:52:07;4.50;;;2.10;;
19946;SDS011;10135;50.702;7.276;2024-01-27T15:54:08;9.87;;;2.33;;
19946;SDS011;10135;50.702;7.276;2024-01-27T15:56:09;6.40;;;2.20;;
19946;SDS011;10135;50.702;7.276;2024-01-27T15:58:10;6.87;;;2.47;;
19946;SDS011;10135;50.702;7.276;2024-01-27T16:00:11;5.27;;;2.40;;
19946;SDS011;10135;50.702;7.276;2024-01-27T16:02:12;6.77;;;2.70;;
19946;SDS011;10135;50.702;7.276;2024-01-27T16:04:13;5.03;;;2.53;;
19946;SDS011;10135;50.702;7.276;2024-01-27T16:06:13;9.33;;;3.47;;
19946;SDS011;10135;50.702;7.276;2024-01-27T16:08:14;8.10;;;2.80;;
19946;SDS011;10135;50.702;7.276;2024-01-27T16:10:15;8.13;;;3.17;;
19946;SDS011;10135;50.702;7.276;2024-01-27T16:12:15;6.30;;;2.30;;
19946;SDS011;10135;50.702;7.276;2024-01-27T16:14:16;5.30;;;2.53;;
19946;SDS011;10135;50.702;7.276;2024-01-27T16:16:17;7.83;;;2.57;;
19946;SDS011;10135;50.702;7.276;2024-01-27T16:18:19;5.70;;;2.53;;
19946;SDS011;10135;50.702;7.276;2024-01-27T16:20:20;5.77;;;2.63;;
19946;SDS011;10135;50.702;7.276;2024-01-27T16:22:21;7.27;;;2.13;;
19946;SDS011;10135;50.702;7.276;2024-01-27T16:24:22;6.50;;;2.70;;
19946;SDS011;10135;50.702;7.276;2024-01-27T16:26:23;8.03;;;2.70;;
19946;SDS011;10135;50.702;7.276;2024-01-27T16:28:24;5.67;;;2.50;;
19946;SDS011;10135;50.702;7.276;2024-01-27T16:30:27;5.40;;;2.70;;
19946;SDS011;10135;50.702;7.276;2024-01-27T16:32:27;8.03;;;3.30;;
19946;SDS011;10135;50.702;7.276;2024-01-27T16:34:28;8.67;;;3.63;;
19946;SDS011;10135;50.702;7.276;2024-01-27T16:36:29;9.97;;;4.50;;
19946;SDS011;10135;50.702;7.276;2024-01-27T16:38:29;10.10;;;4.20;;
19946;SDS011;10135;50.702;7.276;2024-01-27T16:40:30;9.33;;;4.13;;
19946;SDS011;10135;50.702;7.276;2024-01-27T16:42:31;10.07;;;3.90;;
19946;SDS011;10135;50.702;7.276;2024-01-27T16:44:32;7.13;;;3.53;;
19946;SDS011;10135;50.702;7.276;2024-01-27T16:46:32;7.57;;;3.63;;
19946;SDS011;10135;50.702;7.276;2024-01-27T16:48:34;7.83;;;4.50;;
19946;SDS011;10135;50.702;7.276;2024-01-27T16:50:35;8.97;;;3.80;;
19946;SDS011;10135;50.702;7.276;2024-01-27T16:52:36;7.10;;;3.53;;
19946;SDS011;10135;50.702;7.276;2024-01-27T16:54:37;10.63;;;3.40;;
19946;SDS011;10135;50.702;7.276;2024-01-27T16:56:40;6.60;;;3.80;;
19946;SDS011;10135;50.702;7.276;2024-01-27T16:58:41;8.00;;;3.47;;
19946;SDS011;10135;50.702;7.276;2024-01-27T17:00:46;6.97;;;3.13;;
19946;SDS011;10135;50.702;7.276;2024-01-27T17:02:47;7.60;;;3.20;;
19946;SDS011;10135;50.702;7.276;2024-01-27T17:04:47;9.90;;;3.40;;
19946;SDS011;10135;50.702;7.276;2024-01-27T17:06:49;7.63;;;3.33;;
19946;SDS011;10135;50.702;7.276;2024-01-27T17:08:50;6.73;;;3.33;;
19946;SDS011;10135;50.702;7.276;2024-01-27T17:10:51;9.87;;;3.53;;
19946;SDS011;10135;50.702;7.276;2024-01-27T17:12:52;7.27;;;4.10;;
19946;SDS011;10135;50.702;7.276;2024-01-27T17:14:53;8.37;;;4.00;;
19946;SDS011;10135;50.702;7.276;2024-01-27T17:16:54;12.03;;;5.10;;
19946;SDS011;10135;50.702;7.276;2024-01-27T17:18:54;11.83;;;5.10;;
19946;SDS011;10135;50.702;7.276;2024-01-27T17:20:55;9.53;;;4.00;;
19946;SDS011;10135;50.702;7.276;2024-01-27T17:22:57;9.87;;;4.07;;
19946;SDS011;10135;50.702;7.276;2024-01-27T17:24:58;7.57;;;4.00;;
19946;SDS011;10135;50.702;7.276;2024-01-27T17:27:01;8.00;;;3.73;;
19946;SDS011;10135;50.702;7.276;2024-01-27T17:29:02;7.73;;;3.63;;
19946;SDS011;10135;50.702;7.276;2024-01-27T17:31:03;8.13;;;3.60;;
19946;SDS011;10135;50.702;7.276;2024-01-27T17:33:04;10.53;;;3.70;;
19946;SDS011;10135;50.702;7.276;2024-01-27T17:35:05;11.10;;;4.63;;
19946;SDS011;10135;50.702;7.276;2024-01-27T17:37:08;8.00;;;3.90;;
19946;SDS011;10135;50.702;7.276;2024-01-27T17:39:09;7.20;;;4.00;;
19946;SDS011;10135;50.702;7.276;2024-01-27T17:41:09;8.27;;;3.90;;
19946;SDS011;10135;50.702;7.276;2024-01-27T17:43:10;8.80;;;3.67;;
19946;SDS011;10135;50.702;7.276;2024-01-27T17:45:11;10.83;;;3.83;;
19946;SDS011;10135;50.702;7.276;2024-01-27T17:47:11;12.30;;;3.70;;
19946;SDS011;10135;50.702;7.276;2024-01-27T17:49:12;7.20;;;3.60;;
19946;SDS011;10135;50.702;7.276;2024-01-27T17:51:13;9.77;;;3.70;;
19946;SDS011;10135;50.702;7.276;2024-01-27T17:53:13;9.93;;;3.93;;
19946;SDS011;10135;50.702;7.276;2024-01-27T17:55:15;10.30;;;3.70;;
19946;SDS011;10135;50.702;7.276;2024-01-27T17:57:16;9.87;;;4.00;;
19946;SDS011;10135;50.702;7.276;2024-01-27T17:59:17;23.40;;;11.50;;
19946;SDS011;10135;50.702;7.276;2024-01-27T18:01:17;24.47;;;11.30;;
19946;SDS011;10135;50.702;7.276;2024-01-27T18:03:18;25.87;;;11.57;;
19946;SDS011;10135;50.702;7.276;2024-01-27T18:05:19;29.03;;;12.67;;
19946;SDS011;10135;50.702;7.276;2024-01-27T18:07:20;16.80;;;7.33;;
19946;SDS011;10135;50.702;7.276;2024-01-27T18:09:20;13.30;;;5.67;;
19946;SDS011;10135;50.702;7.276;2024-01-27T18:11:21;15.70;;;6.47;;
19946;SDS011;10135;50.702;7.276;2024-01-27T18:13:22;12.93;;;5.33;;
19946;SDS011;10135;50.702;7.276;2024-01-27T18:15:23;10.17;;;4.40;;
19946;SDS011;10135;50.702;7.276;2024-01-27T18:17:23;8.97;;;4.60;;
19946;SDS011;10135;50.702;7.276;2024-01-27T18:19:24;9.37;;;4.53;;
19946;SDS011;10135;50.702;7.276;2024-01-27T18:21:25;13.73;;;4.70;;
19946;SDS011;10135;50.702;7.276;2024-01-27T18:23:25;6.47;;;4.43;;
19946;SDS011;10135;50.702;7.276;2024-01-27T18:25:26;9.87;;;4.33;;
19946;SDS011;10135;50.702;7.276;2024-01-27T18:27:27;8.83;;;4.13;;
19946;SDS011;10135;50.702;7.276;2024-01-27T18:29:28;9.47;;;4.80;;
19946;SDS011;10135;50.702;7.276;2024-01-27T18:31:29;11.33;;;4.17;;
19946;SDS011;10135;50.702;7.276;2024-01-27T18:33:29;8.13;;;4.40;;
19946;SDS011;10135;50.702;7.276;2024-01-27T18:35:30;7.77;;;3.93;;
19946;SDS011;10135;50.702;7.276;2024-01-27T18:37:31;10.17;;;4.87;;
19946;SDS011;10135;50.702;7.276;2024-01-27T18:39:32;7.53;;;4.07;;